Time;durP1;ratioP1;P1;durP2;ratioP2;P2;SDS_P1;SDS_P2;PMS_P1;PMS_P2;Temp;Humidity;BMP_temperature;BMP_pressure;BME280_temperature;BME280_humidity;BME280_pressure;Samples;Min_cycle;Max_cycle;Signal;HPM_P1;HPM_P2
2023/11/26 00:01:52;;;;;;;9.45;3.90;;;3.80;99.90;;;;;;5037578;28;20073;-82
2023/11/26 00:04:19;;;;;;;4.57;3.88;;;3.80;99.90;;;;;;5042364;28;20036;-82
2023/11/26 00:06:45;;;;;;;13.43;5.72;;;3.70;99.90;;;;;;5055918;28;20036;-82
2023/11/26 00:09:11;;;;;;;17.23;5.40;;;3.70;99.90;;;;;;5043809;28;20392;-82
2023/11/26 00:11:36;;;;;;;10.73;4.72;;;3.60;99.90;;;;;;5055907;28;20095;-81
2023/11/26 00:14:03;;;;;;;17.23;4.35;;;3.60;99.90;;;;;;5050604;28;20100;-83
2023/11/26 00:16:29;;;;;;;8.23;3.78;;;3.60;99.90;;;;;;5043239;28;20048;-81
2023/11/26 00:18:55;;;;;;;12.90;5.18;;;3.60;99.90;;;;;;5031454;28;20098;-82
2023/11/26 00:21:21;;;;;;;7.78;3.90;;;3.60;99.90;;;;;;5059105;28;20460;-82
2023/11/26 00:23:46;;;;;;;7.80;3.00;;;3.60;99.90;;;;;;5031862;28;20052;-83
2023/11/26 00:26:12;;;;;;;6.28;4.18;;;3.70;99.90;;;;;;5038552;28;20503;-83
2023/11/26 00:28:39;;;;;;;8.13;4.03;;;3.80;99.90;;;;;;5042516;28;20021;-83
2023/11/26 00:31:05;;;;;;;7.43;5.13;;;3.80;99.90;;;;;;5041480;28;20100;-82
2023/11/26 00:33:31;;;;;;;7.18;3.17;;;3.90;99.90;;;;;;5060800;28;20629;-83
2023/11/26 00:35:57;;;;;;;5.03;3.50;;;3.80;99.90;;;;;;5043971;28;20039;-81
2023/11/26 00:38:23;;;;;;;10.15;5.13;;;3.90;99.90;;;;;;5048977;28;20029;-83
2023/11/26 00:40:49;;;;;;;5.03;3.63;;;3.90;99.90;;;;;;5046232;28;20119;-84
2023/11/26 00:43:14;;;;;;;15.15;5.63;;;3.80;99.90;;;;;;5043858;28;20041;-82
2023/11/26 00:45:40;;;;;;;7.32;4.15;;;3.70;99.90;;;;;;5042648;28;20705;-83
2023/11/26 00:48:06;;;;;;;12.52;5.45;;;3.70;99.90;;;;;;5046383;28;20055;-81
2023/11/26 00:50:31;;;;;;;8.60;2.88;;;3.80;99.90;;;;;;5029034;28;20044;-82
2023/11/26 00:52:57;;;;;;;11.80;4.47;;;3.70;99.90;;;;;;5060403;28;20071;-84
2023/11/26 00:55:23;;;;;;;11.30;5.32;;;3.80;99.90;;;;;;5028208;28;20046;-83
2023/11/26 00:57:49;;;;;;;9.63;5.03;;;3.80;99.90;;;;;;5064295;28;20024;-82
2023/11/26 01:00:15;;;;;;;10.63;3.72;;;3.90;99.90;;;;;;5060665;28;20032;-84
2023/11/26 01:02:41;;;;;;;7.32;4.00;;;3.80;99.90;;;;;;5029444;28;20533;-83
2023/11/26 01:05:08;;;;;;;13.80;6.20;;;3.90;99.90;;;;;;5059946;28;20070;-80
2023/11/26 01:07:33;;;;;;;6.82;3.70;;;3.90;99.90;;;;;;5044159;28;20500;-83
2023/11/26 01:10:00;;;;;;;21.15;7.22;;;3.80;99.90;;;;;;5048428;28;20040;-83
2023/11/26 01:12:25;;;;;;;16.77;7.28;;;3.80;99.90;;;;;;5063867;28;20032;-83
2023/11/26 01:14:51;;;;;;;8.85;4.40;;;3.70;99.90;;;;;;5050369;28;20035;-83
2023/11/26 01:17:20;;;;;;;18.40;7.05;;;3.70;99.90;;;;;;5047762;28;20408;-83
2023/11/26 01:19:46;;;;;;;11.18;4.38;;;3.60;99.90;;;;;;5067632;28;20028;-83
2023/11/26 01:22:12;;;;;;;13.93;7.40;;;3.60;99.90;;;;;;5044528;28;20130;-84
2023/11/26 01:24:37;;;;;;;13.80;7.57;;;3.60;99.90;;;;;;5031953;28;20036;-83
2023/11/26 01:27:04;;;;;;;8.65;3.53;;;3.70;99.90;;;;;;5049858;28;20083;-84
2023/11/26 01:29:30;;;;;;;9.65;4.50;;;3.80;99.90;;;;;;5060320;28;20522;-84
2023/11/26 01:31:55;;;;;;;5.85;4.35;;;3.80;99.90;;;;;;5034685;28;20048;-84
2023/11/26 01:34:21;;;;;;;8.38;5.70;;;3.80;99.90;;;;;;5066874;28;20063;-84
2023/11/26 01:36:46;;;;;;;10.50;4.60;;;3.80;99.90;;;;;;5032024;28;20143;-83
2023/11/26 01:39:12;;;;;;;12.68;6.30;;;3.70;99.90;;;;;;5049799;28;20841;-83
2023/11/26 01:41:37;;;;;;;9.68;5.22;;;3.60;99.90;;;;;;5046048;28;20457;-84
2023/11/26 01:44:03;;;;;;;8.20;3.97;;;3.60;99.90;;;;;;5044823;28;20033;-84
2023/11/26 01:46:29;;;;;;;9.00;5.90;;;3.60;99.90;;;;;;5050818;28;20028;-83
2023/11/26 01:48:55;;;;;;;20.50;10.40;;;3.60;99.90;;;;;;5041566;28;20064;-82
2023/11/26 01:51:20;;;;;;;17.60;10.73;;;3.50;99.90;;;;;;5070558;28;20032;-83
2023/11/26 01:53:48;;;;;;;16.17;8.60;;;3.40;99.90;;;;;;5034172;28;20036;-84
2023/11/26 01:56:14;;;;;;;19.88;10.43;;;3.50;99.90;;;;;;5043712;28;20044;-84
2023/11/26 01:58:40;;;;;;;13.90;8.70;;;3.50;99.90;;;;;;5028895;28;20039;-84
2023/11/26 02:01:05;;;;;;;9.60;5.90;;;3.60;99.90;;;;;;5042678;28;20029;-83
2023/11/26 02:03:31;;;;;;;16.80;8.70;;;3.60;99.90;;;;;;5060287;28;20475;-83
2023/11/26 02:05:57;;;;;;;10.82;6.18;;;3.70;99.90;;;;;;5026591;28;20446;-83
2023/11/26 02:08:22;;;;;;;30.77;12.90;;;3.70;99.90;;;;;;5045676;28;20058;-83
2023/11/26 02:10:48;;;;;;;13.75;7.55;;;3.60;99.90;;;;;;5059385;28;20024;-83
2023/11/26 02:13:14;;;;;;;18.30;10.80;;;3.60;99.90;;;;;;5042789;28;20119;-84
2023/11/26 02:15:39;;;;;;;27.20;12.18;;;3.40;99.90;;;;;;5059135;28;20100;-84
2023/11/26 02:18:05;;;;;;;29.60;14.27;;;3.40;99.90;;;;;;5057291;28;20369;-84
2023/11/26 02:20:30;;;;;;;27.30;10.35;;;3.40;99.90;;;;;;5043426;28;20484;-82
2023/11/26 02:22:56;;;;;;;14.82;8.75;;;3.50;99.90;;;;;;5044397;28;20480;-83
2023/11/26 02:25:23;;;;;;;22.15;11.30;;;3.50;99.90;;;;;;5045947;28;20032;-82
2023/11/26 02:27:50;;;;;;;27.27;13.40;;;3.40;99.90;;;;;;5063206;28;20557;-82
2023/11/26 02:30:20;;;;;;;31.02;13.98;;;3.40;99.90;;;;;;5026699;28;20567;-82
2023/11/26 02:32:46;;;;;;;23.85;12.75;;;3.30;99.90;;;;;;5045867;28;20137;-84
2023/11/26 02:35:12;;;;;;;25.00;12.32;;;3.20;99.90;;;;;;5027045;28;20033;-83
2023/11/26 02:37:37;;;;;;;15.05;8.38;;;3.10;99.90;;;;;;5045873;28;20037;-81
2023/11/26 02:40:05;;;;;;;27.38;11.50;;;3.10;99.90;;;;;;5041135;28;20033;-83
2023/11/26 02:42:32;;;;;;;26.77;10.05;;;3.10;99.90;;;;;;5041901;28;20429;-84
2023/11/26 02:44:59;;;;;;;20.83;9.30;;;3.10;99.90;;;;;;5058513;28;20492;-83
2023/11/26 02:47:26;;;;;;;16.45;8.05;;;3.00;99.90;;;;;;5059278;28;20057;-84
2023/11/26 02:49:52;;;;;;;18.17;8.98;;;2.90;99.90;;;;;;5039309;28;20614;-82
2023/11/26 02:52:18;;;;;;;18.50;8.05;;;2.90;99.90;;;;;;5030548;28;20044;-83
2023/11/26 02:54:44;;;;;;;17.02;8.55;;;2.90;99.90;;;;;;5023561;28;20047;-83
2023/11/26 02:57:10;;;;;;;16.85;8.45;;;3.00;99.90;;;;;;5055563;28;20029;-83
2023/11/26 02:59:35;;;;;;;16.75;8.82;;;3.00;99.90;;;;;;5041688;28;20124;-83
2023/11/26 03:02:01;;;;;;;21.17;7.47;;;2.90;99.90;;;;;;5040412;28;20033;-83
2023/11/26 03:04:27;;;;;;;17.08;8.77;;;2.90;99.90;;;;;;5060299;28;20056;-83
2023/11/26 03:06:52;;;;;;;13.20;7.18;;;2.90;99.90;;;;;;5040637;28;20099;-83
2023/11/26 03:14:53;;;;;;;24.75;8.52;;;2.90;99.90;;;;;;5055716;28;20059;-79
2023/11/26 03:17:18;;;;;;;21.00;8.82;;;2.70;99.90;;;;;;5055329;28;20029;-79
2023/11/26 03:19:47;;;;;;;13.27;7.47;;;2.60;99.90;;;;;;5043466;28;20029;-79
2023/11/26 03:22:13;;;;;;;16.08;7.13;;;2.60;99.90;;;;;;5039016;28;20033;-79
2023/11/26 03:24:42;;;;;;;8.95;4.18;;;2.60;99.90;;;;;;5027055;28;20117;-79
2023/11/26 03:27:08;;;;;;;16.77;7.82;;;2.60;99.90;;;;;;5056216;28;20516;-79
2023/11/26 03:29:34;;;;;;;16.27;6.35;;;2.50;99.90;;;;;;5043884;28;20037;-79
2023/11/26 03:31:59;;;;;;;10.32;6.43;;;2.60;99.90;;;;;;5057480;28;20091;-79
2023/11/26 03:34:28;;;;;;;11.90;6.00;;;2.80;99.90;;;;;;5040729;28;20032;-79
2023/11/26 03:36:54;;;;;;;14.60;7.25;;;2.60;99.90;;;;;;5026124;28;20045;-78
2023/11/26 03:39:20;;;;;;;19.67;8.48;;;2.70;99.90;;;;;;5040486;28;20054;-79
2023/11/26 03:41:46;;;;;;;15.75;7.07;;;2.60;99.90;;;;;;5035654;28;20032;-80
2023/11/26 03:44:12;;;;;;;10.85;5.78;;;2.50;99.90;;;;;;5040947;28;20031;-79
2023/11/26 03:46:42;;;;;;;19.13;7.72;;;2.70;99.90;;;;;;5043828;28;20032;-79
2023/11/26 03:49:07;;;;;;;15.20;6.90;;;2.70;99.90;;;;;;5032036;28;20155;-79
2023/11/26 03:51:33;;;;;;;14.65;7.20;;;2.50;99.90;;;;;;5050002;28;20646;-79
2023/11/26 03:53:59;;;;;;;13.02;6.38;;;2.60;99.90;;;;;;5059449;28;20472;-78
2023/11/26 03:56:24;;;;;;;19.80;10.10;;;2.60;99.90;;;;;;5044245;28;20443;-79
2023/11/26 03:58:50;;;;;;;15.88;7.50;;;2.50;99.90;;;;;;5061462;28;20021;-78
2023/11/26 04:01:15;;;;;;;17.88;9.20;;;2.50;99.90;;;;;;5061463;28;20033;-78
2023/11/26 04:03:41;;;;;;;18.95;9.65;;;2.70;99.90;;;;;;5043656;28;20086;-78
2023/11/26 04:06:07;;;;;;;13.85;7.43;;;2.60;99.90;;;;;;5057407;28;20130;-79
2023/11/26 04:08:32;;;;;;;25.98;9.27;;;2.60;99.90;;;;;;5027152;28;20032;-79
2023/11/26 04:10:58;;;;;;;10.73;5.85;;;2.50;99.90;;;;;;5043165;28;20029;-78
2023/11/26 04:13:27;;;;;;;12.02;6.70;;;2.50;99.90;;;;;;5061177;28;20035;-78
2023/11/26 04:15:57;;;;;;;15.60;7.28;;;2.50;99.90;;;;;;5044956;28;20039;-79
2023/11/26 04:18:23;;;;;;;17.20;8.30;;;2.50;99.90;;;;;;5043238;28;20037;-79
2023/11/26 04:20:48;;;;;;;18.42;7.63;;;2.50;99.90;;;;;;5043496;28;20028;-79
2023/11/26 04:23:15;;;;;;;19.13;7.55;;;2.60;99.90;;;;;;5041290;28;20033;-78
2023/11/26 04:25:40;;;;;;;16.48;9.18;;;2.50;99.90;;;;;;5043908;28;20032;-80
2023/11/26 04:28:06;;;;;;;13.18;6.72;;;2.50;99.90;;;;;;5046170;28;20028;-78
2023/11/26 04:30:31;;;;;;;19.05;8.00;;;2.60;99.90;;;;;;5043842;28;20695;-78
2023/11/26 04:32:57;;;;;;;14.85;6.38;;;2.70;99.90;;;;;;5059563;28;20037;-79
2023/11/26 04:35:24;;;;;;;20.85;8.80;;;2.90;99.90;;;;;;5056444;28;20029;-79
2023/11/26 04:37:50;;;;;;;25.63;9.55;;;2.60;99.90;;;;;;5040544;28;20123;-79
2023/11/26 04:40:17;;;;;;;12.32;6.57;;;2.60;99.90;;;;;;5040579;28;20044;-78
2023/11/26 04:42:43;;;;;;;18.17;10.35;;;2.60;99.90;;;;;;5059968;28;20147;-79
2023/11/26 04:45:10;;;;;;;17.70;7.07;;;2.70;99.90;;;;;;5029883;28;20048;-78
2023/11/26 04:47:35;;;;;;;23.85;10.93;;;2.70;99.90;;;;;;5058658;28;20621;-78
2023/11/26 04:50:01;;;;;;;20.42;9.68;;;2.70;99.90;;;;;;5042708;28;20111;-79
2023/11/26 04:52:27;;;;;;;16.70;9.30;;;2.70;99.90;;;;;;5045184;28;20040;-79
2023/11/26 04:54:53;;;;;;;23.38;9.93;;;2.80;99.90;;;;;;5041800;28;20391;-78
2023/11/26 04:57:20;;;;;;;24.20;11.32;;;2.80;99.90;;;;;;5027458;28;20032;-79
2023/11/26 04:59:46;;;;;;;12.77;7.32;;;2.70;99.90;;;;;;5040073;28;20032;-79
2023/11/26 05:02:14;;;;;;;11.90;6.00;;;2.70;99.90;;;;;;5042086;28;20039;-78
2023/11/26 05:04:39;;;;;;;16.52;7.28;;;2.80;99.90;;;;;;5046775;28;20032;-78
2023/11/26 05:07:05;;;;;;;20.02;9.60;;;2.80;99.90;;;;;;5042738;28;20044;-79
2023/11/26 05:09:32;;;;;;;15.98;7.88;;;2.70;99.90;;;;;;5055569;28;20032;-78
2023/11/26 05:11:58;;;;;;;20.85;10.27;;;2.70;99.90;;;;;;5059633;28;20031;-79
2023/11/26 05:14:24;;;;;;;17.55;8.88;;;2.80;99.90;;;;;;5027035;28;20447;-78
2023/11/26 05:16:49;;;;;;;10.10;5.57;;;2.90;99.90;;;;;;5029312;28;20025;-78
2023/11/26 05:19:15;;;;;;;20.52;10.30;;;2.90;99.90;;;;;;5040196;28;20051;-80
2023/11/26 05:21:40;;;;;;;11.77;5.60;;;2.90;99.90;;;;;;5037880;28;20123;-78
2023/11/26 05:24:06;;;;;;;15.18;7.50;;;2.90;99.90;;;;;;5032961;28;20031;-78
2023/11/26 05:26:32;;;;;;;24.55;9.82;;;2.90;99.90;;;;;;5031964;28;20111;-79
2023/11/26 05:28:57;;;;;;;23.40;8.82;;;2.90;99.90;;;;;;5027369;28;20170;-79
2023/11/26 05:31:23;;;;;;;8.52;3.80;;;2.80;99.90;;;;;;5056198;28;20135;-83
2023/11/26 05:33:51;;;;;;;10.85;4.40;;;2.80;99.90;;;;;;5026172;28;20175;-78
2023/11/26 05:36:17;;;;;;;15.00;6.68;;;2.90;99.90;;;;;;5045572;28;20681;-79
2023/11/26 05:38:43;;;;;;;18.70;9.82;;;3.00;99.90;;;;;;5047079;28;20483;-80
2023/11/26 05:41:09;;;;;;;24.20;9.95;;;2.90;99.90;;;;;;5041791;28;20029;-79
2023/11/26 05:43:35;;;;;;;21.98;11.57;;;3.00;99.90;;;;;;5060751;28;20039;-79
2023/11/26 05:46:00;;;;;;;16.23;10.23;;;3.00;99.90;;;;;;5057756;28;20119;-79
2023/11/26 05:48:26;;;;;;;22.67;10.38;;;3.00;99.90;;;;;;5057022;28;20044;-80
2023/11/26 05:50:51;;;;;;;27.20;13.48;;;3.10;99.90;;;;;;5029744;28;20044;-79
2023/11/26 05:53:18;;;;;;;25.42;14.75;;;3.10;99.90;;;;;;5029287;28;20040;-78
2023/11/26 05:55:44;;;;;;;27.70;13.80;;;3.10;99.90;;;;;;5041985;28;20071;-79
2023/11/26 05:58:09;;;;;;;20.83;10.80;;;3.10;99.90;;;;;;5058859;28;20399;-79
2023/11/26 06:00:35;;;;;;;20.25;11.60;;;3.10;99.90;;;;;;5043630;28;20045;-78
2023/11/26 06:03:00;;;;;;;34.13;16.85;;;3.20;99.90;;;;;;5057387;28;20068;-78
2023/11/26 06:05:26;;;;;;;27.27;13.65;;;3.20;99.90;;;;;;5026757;28;20025;-78
2023/11/26 06:07:52;;;;;;;36.78;16.23;;;3.30;99.90;;;;;;5056265;28;20059;-79
2023/11/26 06:10:17;;;;;;;31.13;12.90;;;3.20;99.90;;;;;;5042841;28;20123;-78
2023/11/26 06:12:43;;;;;;;24.63;12.95;;;3.20;99.90;;;;;;5028712;28;20120;-78
2023/11/26 06:15:09;;;;;;;21.63;12.02;;;3.20;99.90;;;;;;5059001;28;20523;-78
2023/11/26 06:17:35;;;;;;;24.17;14.40;;;3.20;99.90;;;;;;5057733;28;20058;-79
2023/11/26 06:20:03;;;;;;;22.85;9.57;;;3.20;99.90;;;;;;5041229;28;20029;-78
2023/11/26 06:22:29;;;;;;;34.40;16.65;;;3.20;99.90;;;;;;5027723;28;20549;-78
2023/11/26 06:24:54;;;;;;;30.88;16.00;;;3.20;99.90;;;;;;5046257;28;20037;-78
2023/11/26 06:27:20;;;;;;;45.22;21.90;;;3.20;99.90;;;;;;5043930;28;20097;-79
2023/11/26 06:29:45;;;;;;;27.10;15.65;;;3.30;99.90;;;;;;5044871;28;20032;-77
2023/11/26 06:32:11;;;;;;;37.92;18.13;;;3.30;99.90;;;;;;5037311;28;20112;-78
2023/11/26 06:34:39;;;;;;;29.20;14.73;;;3.30;99.90;;;;;;5027984;28;20056;-78
2023/11/26 06:37:05;;;;;;;38.53;17.95;;;3.20;99.90;;;;;;5044664;28;20037;-79
2023/11/26 06:39:31;;;;;;;27.02;14.73;;;3.30;99.90;;;;;;5056982;28;20373;-79
2023/11/26 06:41:56;;;;;;;34.40;16.35;;;3.20;99.90;;;;;;5044090;28;20035;-77
2023/11/26 06:44:22;;;;;;;33.10;16.48;;;3.20;99.90;;;;;;5045204;28;20036;-78
2023/11/26 06:46:51;;;;;;;39.53;18.73;;;3.10;99.90;;;;;;5041899;28;20449;-78
2023/11/26 06:49:16;;;;;;;39.47;20.50;;;3.10;99.90;;;;;;5023034;28;20419;-79
2023/11/26 06:51:43;;;;;;;36.17;17.90;;;3.20;99.90;;;;;;5038642;28;20033;-78
2023/11/26 06:54:09;;;;;;;48.65;23.35;;;3.10;99.90;;;;;;5027705;28;20031;-78
2023/11/26 06:56:35;;;;;;;25.95;12.25;;;3.20;99.90;;;;;;5043134;28;20033;-78
2023/11/26 06:59:00;;;;;;;19.98;9.40;;;3.10;99.90;;;;;;5042292;28;20083;-80
2023/11/26 07:01:27;;;;;;;31.65;17.08;;;3.10;99.90;;;;;;5055950;28;20021;-79
2023/11/26 07:03:53;;;;;;;18.80;11.07;;;3.20;99.90;;;;;;5039449;28;20115;-79
2023/11/26 07:06:19;;;;;;;33.30;17.27;;;3.20;99.90;;;;;;5042760;28;20036;-79
2023/11/26 07:08:44;;;;;;;38.30;21.15;;;3.20;99.90;;;;;;5045531;28;20032;-78
2023/11/26 07:11:19;;;;;;;40.90;23.92;;;3.20;99.90;;;;;;5058677;28;20037;-78
2023/11/26 07:13:47;;;;;;;45.30;24.58;;;3.20;99.90;;;;;;5042311;28;20047;-78
2023/11/26 07:16:13;;;;;;;48.42;26.60;;;3.10;99.90;;;;;;5039859;28;20044;-79
2023/11/26 07:18:38;;;;;;;25.85;12.82;;;3.20;99.90;;;;;;5044073;28;20071;-78
2023/11/26 07:21:05;;;;;;;50.88;24.52;;;3.20;99.90;;;;;;5029276;28;20032;-78
2023/11/26 07:23:31;;;;;;;47.83;23.55;;;3.20;99.90;;;;;;5040478;28;20036;-78
2023/11/26 07:25:57;;;;;;;43.92;22.17;;;3.30;99.90;;;;;;5031718;28;20512;-79
2023/11/26 07:28:22;;;;;;;44.45;25.25;;;3.20;99.90;;;;;;5036790;28;20111;-78
2023/11/26 07:30:48;;;;;;;43.40;24.35;;;3.30;99.90;;;;;;5062453;28;20418;-79
2023/11/26 07:33:13;;;;;;;41.80;21.23;;;3.20;99.90;;;;;;5061039;28;20790;-79
2023/11/26 07:35:39;;;;;;;37.63;15.57;;;3.30;99.90;;;;;;5047689;28;20024;-77
2023/11/26 07:38:06;;;;;;;35.83;20.92;;;3.30;99.90;;;;;;5042878;28;20036;-77
2023/11/26 07:40:32;;;;;;;39.00;19.27;;;3.40;99.90;;;;;;5051383;28;20029;-83
2023/11/26 07:42:59;;;;;;;31.20;15.95;;;3.40;99.90;;;;;;5063390;28;20032;-83
2023/11/26 07:45:24;;;;;;;18.23;8.95;;;3.40;99.90;;;;;;5062545;28;20044;-85
2023/11/26 07:47:50;;;;;;;24.02;9.27;;;3.30;99.90;;;;;;5045224;28;20043;-84
2023/11/26 07:50:15;;;;;;;41.42;21.88;;;3.40;99.90;;;;;;5046962;28;20516;-83
2023/11/26 07:52:41;;;;;;;32.83;17.83;;;3.40;99.90;;;;;;5046650;28;20037;-83
2023/11/26 07:55:07;;;;;;;44.78;21.05;;;3.40;99.90;;;;;;5056489;28;20399;-84
2023/11/26 07:57:33;;;;;;;32.45;19.92;;;3.40;99.90;;;;;;5046687;28;20037;-84
2023/11/26 07:59:59;;;;;;;34.80;19.98;;;3.50;99.90;;;;;;5041074;28;20548;-83
2023/11/26 08:02:26;;;;;;;30.27;17.50;;;3.60;99.90;;;;;;5038148;28;20035;-84
2023/11/26 08:04:53;;;;;;;32.40;17.85;;;3.50;99.90;;;;;;5046430;28;20119;-83
2023/11/26 08:07:23;;;;;;;26.10;13.15;;;3.50;99.90;;;;;;5059385;28;20051;-84
2023/11/26 08:09:50;;;;;;;32.47;15.43;;;3.50;99.90;;;;;;5062431;28;20033;-84
2023/11/26 08:12:18;;;;;;;38.70;20.77;;;3.50;99.90;;;;;;5050153;28;20666;-83
2023/11/26 08:14:44;;;;;;;23.77;13.00;;;3.50;99.90;;;;;;5042757;28;20464;-83
2023/11/26 08:17:09;;;;;;;22.27;11.93;;;3.50;99.90;;;;;;5046651;28;20407;-83
2023/11/26 08:19:36;;;;;;;13.80;5.53;;;3.50;99.90;;;;;;5044171;28;20111;-85
2023/11/26 08:22:01;;;;;;;28.30;15.15;;;3.60;99.90;;;;;;5047462;28;20039;-84
2023/11/26 08:24:29;;;;;;;23.00;14.18;;;3.60;99.90;;;;;;5061251;28;20044;-82
2023/11/26 08:26:54;;;;;;;30.83;15.23;;;3.60;99.90;;;;;;5062241;28;20043;-82
2023/11/26 08:29:21;;;;;;;24.55;13.50;;;3.70;99.90;;;;;;5061598;28;20099;-82
2023/11/26 08:31:48;;;;;;;38.20;20.98;;;3.70;99.90;;;;;;5025889;28;20120;-80
2023/11/26 08:34:15;;;;;;;18.33;9.60;;;3.70;99.90;;;;;;5048922;28;20032;-80
2023/11/26 08:36:42;;;;;;;26.98;15.00;;;3.70;99.90;;;;;;5047280;28;20031;-80
2023/11/26 08:39:14;;;;;;;36.90;19.25;;;3.80;99.90;;;;;;5043864;28;20435;-82
2023/11/26 08:41:42;;;;;;;45.38;18.38;;;3.80;99.90;;;;;;5061201;28;20036;-81
2023/11/26 08:44:09;;;;;;;25.63;11.82;;;3.80;99.90;;;;;;5030972;28;20950;-83
2023/11/26 08:46:36;;;;;;;38.25;17.52;;;3.80;99.90;;;;;;5043779;28;20039;-83
2023/11/26 08:49:03;;;;;;;23.77;13.38;;;3.90;99.90;;;;;;5032207;28;20043;-81
2023/11/26 08:51:32;;;;;;;39.55;20.45;;;3.90;99.90;;;;;;5045735;28;20039;-83
2023/11/26 08:53:59;;;;;;;43.17;22.52;;;4.00;99.90;;;;;;5044200;28;20033;-82
2023/11/26 08:56:25;;;;;;;21.83;11.52;;;4.00;99.90;;;;;;5059070;28;20105;-81
2023/11/26 08:58:51;;;;;;;36.97;20.27;;;4.00;99.90;;;;;;5061379;28;20511;-82
2023/11/26 09:01:18;;;;;;;18.58;10.20;;;4.10;99.90;;;;;;5028438;28;20037;-83
2023/11/26 09:03:44;;;;;;;24.50;12.95;;;4.10;99.90;;;;;;5031284;28;20028;-78
2023/11/26 09:06:09;;;;;;;35.42;18.42;;;4.10;99.90;;;;;;5043682;28;20128;-78
2023/11/26 09:08:35;;;;;;;25.60;12.30;;;4.20;99.90;;;;;;5046009;28;20064;-79
2023/11/26 09:11:01;;;;;;;36.10;14.68;;;4.20;99.90;;;;;;5061628;28;20079;-79
2023/11/26 09:13:29;;;;;;;34.95;18.58;;;4.20;99.90;;;;;;5042179;28;20057;-77
2023/11/26 09:15:56;;;;;;;36.25;19.63;;;4.30;99.90;;;;;;5043763;28;20075;-79
2023/11/26 09:18:21;;;;;;;36.90;20.45;;;4.30;99.90;;;;;;5044275;28;20025;-78
2023/11/26 09:20:50;;;;;;;35.65;15.27;;;4.40;99.90;;;;;;5059199;28;20165;-82
2023/11/26 09:23:16;;;;;;;20.75;10.13;;;4.40;99.90;;;;;;5046533;28;20411;-83
2023/11/26 09:25:41;;;;;;;30.20;15.70;;;4.50;99.90;;;;;;5044878;28;20028;-83
2023/11/26 09:28:07;;;;;;;30.13;14.07;;;4.50;99.90;;;;;;5031687;28;20132;-83
2023/11/26 09:30:33;;;;;;;19.75;12.15;;;4.60;99.90;;;;;;5044899;28;20051;-83
2023/11/26 09:32:59;;;;;;;21.73;7.68;;;4.60;99.90;;;;;;5059933;28;20029;-83
2023/11/26 09:35:24;;;;;;;24.15;12.73;;;4.60;99.90;;;;;;5041210;28;20044;-83
2023/11/26 09:37:51;;;;;;;36.17;18.02;;;4.70;99.90;;;;;;5060129;28;20025;-84
2023/11/26 09:40:17;;;;;;;27.23;13.75;;;4.70;99.90;;;;;;5053110;28;20545;-83
2023/11/26 09:42:50;;;;;;;36.72;19.55;;;4.70;99.90;;;;;;5043198;28;20037;-83
2023/11/26 09:45:18;;;;;;;40.72;20.77;;;4.80;99.90;;;;;;5059866;28;20044;-83
2023/11/26 09:47:44;;;;;;;50.33;22.98;;;4.90;99.90;;;;;;5048467;28;20059;-83
2023/11/26 09:50:10;;;;;;;39.25;20.10;;;4.90;99.90;;;;;;5048018;28;20527;-83
2023/11/26 09:52:37;;;;;;;49.13;22.92;;;4.90;99.90;;;;;;5028158;28;20020;-83
2023/11/26 09:55:03;;;;;;;37.65;23.02;;;4.90;99.90;;;;;;5059631;28;20040;-84
2023/11/26 09:57:33;;;;;;;26.55;11.43;;;5.00;99.90;;;;;;5044272;28;20033;-82
2023/11/26 09:59:59;;;;;;;23.17;10.23;;;5.00;99.90;;;;;;5055670;28;20075;-83
2023/11/26 10:02:25;;;;;;;39.83;18.25;;;5.00;99.90;;;;;;5025947;28;20587;-81
2023/11/26 10:05:00;;;;;;;29.05;14.40;;;5.00;99.90;;;;;;4989166;28;20388;-83
2023/11/26 10:07:40;;;;;;;31.15;16.88;;;5.00;99.90;;;;;;5005503;28;20053;-83
2023/11/26 10:10:10;;;;;;;26.58;13.55;;;5.00;99.90;;;;;;5011915;28;20117;-84
2023/11/26 10:12:55;;;;;;;22.92;11.40;;;5.10;99.90;;;;;;4988339;28;20118;-77
2023/11/26 10:15:22;;;;;;;42.72;22.05;;;5.10;99.90;;;;;;4988549;28;20034;-77
2023/11/26 10:18:08;;;;;;;25.48;13.18;;;5.20;99.90;;;;;;4992470;28;20482;-78
2023/11/26 10:20:35;;;;;;;;;;;5.20;99.90;;;;;;4993615;28;20038;-78
2023/11/26 10:23:00;;;;;;;38.10;19.48;;;5.20;99.90;;;;;;4987358;28;19922;-78
2023/11/26 10:25:27;;;;;;;42.33;19.08;;;5.30;99.90;;;;;;4990709;28;20122;-78
2023/11/26 10:27:55;;;;;;;37.78;18.35;;;5.40;99.90;;;;;;4971617;28;20023;-78
2023/11/26 10:30:27;;;;;;;31.45;16.40;;;5.40;99.90;;;;;;4983140;28;20110;-79
2023/11/26 10:32:58;;;;;;;31.85;17.40;;;5.50;99.90;;;;;;4988079;28;20035;-77
2023/11/26 10:35:23;;;;;;;39.15;20.77;;;5.50;99.90;;;;;;4997205;28;20518;-79
2023/11/26 10:38:09;;;;;;;33.28;16.60;;;5.70;99.90;;;;;;4997095;28;20041;-78
2023/11/26 10:40:34;;;;;;;36.15;18.20;;;5.70;99.90;;;;;;4980903;28;20034;-78
2023/11/26 10:43:00;;;;;;;35.45;17.52;;;5.60;99.90;;;;;;4975804;28;20042;-78
2023/11/26 10:45:27;;;;;;;36.05;19.35;;;5.70;99.90;;;;;;4993246;28;20138;-78
2023/11/26 10:47:53;;;;;;;32.30;16.00;;;5.60;99.90;;;;;;4992076;28;20041;-78
2023/11/26 10:50:18;;;;;;;30.00;18.17;;;5.90;99.90;;;;;;4981989;28;20430;-79
2023/11/26 10:52:51;;;;;;;52.65;22.63;;;5.90;99.90;;;;;;4977234;28;20496;-77
2023/11/26 10:55:20;;;;;;;17.95;9.95;;;5.80;99.90;;;;;;4988499;28;20023;-77
2023/11/26 10:57:49;;;;;;;27.80;12.32;;;5.90;99.90;;;;;;4995022;28;20065;-77
2023/11/26 11:00:21;;;;;;;21.00;11.27;;;5.90;99.90;;;;;;4980655;28;20038;-77
2023/11/26 11:02:47;;;;;;;40.45;18.40;;;5.90;99.90;;;;;;5014339;28;20497;-77
2023/11/26 11:05:13;;;;;;;27.08;13.50;;;6.00;99.90;;;;;;5014907;28;20030;-77
2023/11/26 11:07:40;;;;;;;34.33;20.73;;;5.90;99.90;;;;;;5014381;28;20049;-77
2023/11/26 11:10:17;;;;;;;23.70;12.32;;;6.00;99.90;;;;;;5001561;28;20392;-77
2023/11/26 11:13:00;;;;;;;32.58;14.90;;;6.00;99.90;;;;;;5014249;28;20621;-77
2023/11/26 11:15:26;;;;;;;40.40;19.55;;;6.00;99.90;;;;;;5006114;28;20026;-78
2023/11/26 11:17:51;;;;;;;26.70;15.25;;;6.00;99.90;;;;;;4997532;28;20037;-78
2023/11/26 11:20:17;;;;;;;27.10;14.43;;;6.00;99.90;;;;;;5003453;28;20030;-78
2023/11/26 11:22:43;;;;;;;27.60;15.32;;;6.00;99.90;;;;;;5004162;28;20052;-79
2023/11/26 11:25:13;;;;;;;39.08;21.42;;;6.00;99.90;;;;;;5000837;28;20116;-79
2023/11/26 11:27:52;;;;;;;32.20;14.95;;;6.00;99.90;;;;;;5001367;28;20031;-78
2023/11/26 11:30:33;;;;;;;24.58;15.27;;;6.00;99.90;;;;;;5014741;28;20401;-78
2023/11/26 11:33:03;;;;;;;27.52;14.07;;;6.00;99.90;;;;;;4992032;28;20554;-78
2023/11/26 11:35:35;;;;;;;36.53;18.83;;;6.10;99.90;;;;;;5002466;28;20519;-78
2023/11/26 11:38:05;;;;;;;37.30;18.73;;;6.00;99.90;;;;;;5019049;28;20038;-79
2023/11/26 11:41:09;;;;;;;45.38;19.05;;;6.20;99.90;;;;;;5019690;28;20092;-78
2023/11/26 11:43:36;;;;;;;29.52;18.80;;;6.20;99.90;;;;;;5000842;28;20065;-78
2023/11/26 11:46:30;;;;;;;28.30;14.93;;;6.30;99.90;;;;;;4985633;28;20037;-78
2023/11/26 11:48:56;;;;;;;30.63;13.75;;;6.30;99.90;;;;;;4984940;28;20096;-79
2023/11/26 11:51:36;;;;;;;38.10;22.27;;;6.20;99.90;;;;;;4973746;28;20027;-78
2023/11/26 11:54:10;;;;;;;33.95;17.67;;;6.30;99.90;;;;;;5018189;28;20034;-79
2023/11/26 11:56:37;;;;;;;36.58;20.73;;;6.30;99.90;;;;;;4998737;28;20035;-79
2023/11/26 11:59:02;;;;;;;35.25;18.88;;;6.40;99.90;;;;;;4987503;28;20413;-78
2023/11/26 12:01:28;;;;;;;38.65;18.10;;;6.40;99.90;;;;;;4986175;28;20051;-78
2023/11/26 12:03:54;;;;;;;35.97;19.60;;;6.40;99.90;;;;;;4983342;28;20045;-78
2023/11/26 12:06:21;;;;;;;24.95;13.82;;;6.50;99.90;;;;;;5000981;28;20041;-78
2023/11/26 12:08:57;;;;;;;32.50;16.73;;;6.50;99.90;;;;;;5001365;28;20073;-78
2023/11/26 12:11:23;;;;;;;31.80;18.05;;;6.50;99.90;;;;;;4997187;28;20533;-78
2023/11/26 12:13:49;;;;;;;29.08;15.18;;;6.50;99.90;;;;;;4994154;28;20031;-78
2023/11/26 12:16:14;;;;;;;39.05;18.65;;;6.60;99.90;;;;;;5001179;28;20037;-78
2023/11/26 12:18:40;;;;;;;30.42;13.18;;;6.60;99.90;;;;;;4964323;28;20761;-78
2023/11/26 12:21:06;;;;;;;17.70;8.90;;;6.70;99.90;;;;;;5001961;28;20497;-78
2023/11/26 12:23:35;;;;;;;28.58;14.35;;;6.70;99.90;;;;;;4635987;28;9999964;-78
2023/11/26 12:26:03;;;;;;;27.40;15.18;;;6.70;99.90;;;;;;4700198;28;10001259;-79
2023/11/26 12:28:31;;;;;;;16.95;10.80;;;6.70;99.90;;;;;;4974921;28;20342;-79
2023/11/26 12:30:57;;;;;;;23.77;14.50;;;6.70;99.90;;;;;;4996049;28;20038;-78
2023/11/26 12:33:24;;;;;;;22.95;11.73;;;6.70;99.90;;;;;;4997415;28;20030;-78
2023/11/26 12:35:50;;;;;;;42.58;22.45;;;6.70;99.90;;;;;;4984395;28;20037;-78
2023/11/26 12:38:26;;;;;;;30.95;15.13;;;6.70;99.90;;;;;;4995869;28;20517;-78
2023/11/26 12:40:52;;;;;;;33.58;16.80;;;6.70;99.90;;;;;;4999078;28;20096;-78
2023/11/26 12:43:19;;;;;;;30.92;19.42;;;6.80;99.90;;;;;;4996749;28;20038;-78
2023/11/26 12:45:45;;;;;;;38.35;21.02;;;6.80;99.90;;;;;;4997013;28;20034;-79
2023/11/26 12:48:11;;;;;;;42.08;21.15;;;6.70;99.90;;;;;;4982878;28;20035;-78